createdAt,value
2019-02-22T00:02:19.668Z,87.26
2019-02-22T00:04:50.574Z,87.24
2019-02-22T00:07:21.584Z,87.10
2019-02-22T00:09:52.652Z,87.19
2019-02-22T00:12:24.085Z,87.07
2019-02-22T00:14:55.080Z,86.94
2019-02-22T00:17:26.030Z,86.88
2019-02-22T00:19:57.025Z,86.69
2019-02-22T00:22:27.985Z,86.71
2019-02-22T00:24:59.071Z,86.84
2019-02-22T00:27:30.068Z,87.00
2019-02-22T00:30:01.028Z,87.33
2019-02-22T00:32:32.018Z,87.36
2019-02-22T00:35:03.126Z,88.21
2019-02-22T00:37:34.150Z,87.40
2019-02-22T00:40:06.155Z,87.22
2019-02-22T00:42:37.206Z,86.42
2019-02-22T00:45:08.216Z,86.48
2019-02-22T00:47:39.198Z,85.96
2019-02-22T00:50:10.252Z,85.99
2019-02-22T00:52:41.138Z,86.35
2019-02-22T00:55:12.026Z,86.73
2019-02-22T00:57:42.987Z,86.74
2019-02-22T01:00:14.122Z,86.82
2019-02-22T01:02:45.092Z,86.91
2019-02-22T01:05:16.136Z,87.05
2019-02-22T01:07:47.293Z,87.42
2019-02-22T01:10:18.212Z,87.63
2019-02-22T01:12:49.192Z,87.66
2019-02-22T01:15:20.230Z,87.66
2019-02-22T01:17:51.104Z,87.83
2019-02-22T01:20:22.132Z,87.92
2019-02-22T01:22:53.094Z,88.08
2019-02-22T01:25:24.255Z,88.20
2019-02-22T01:27:55.162Z,88.17
2019-02-22T01:30:26.034Z,88.33
2019-02-22T01:32:56.934Z,88.41
2019-02-22T01:35:27.944Z,88.33
2019-02-22T01:37:58.948Z,88.30
2019-02-22T01:40:29.988Z,88.50
2019-02-22T01:43:00.967Z,88.48
2019-02-22T01:45:31.875Z,88.47
2019-02-22T01:48:02.742Z,88.47
2019-02-22T01:50:33.688Z,88.76
2019-02-22T01:53:04.661Z,88.94
2019-02-22T01:55:36.045Z,89.04
2019-02-22T01:58:06.907Z,88.97
2019-02-22T02:00:38.159Z,88.97
2019-02-22T02:03:09.041Z,89.29
2019-02-22T02:05:39.987Z,89.35
2019-02-22T02:08:11.113Z,89.61
2019-02-22T02:10:42.463Z,89.60
2019-02-22T02:13:13.403Z,89.72
2019-02-22T02:15:44.447Z,89.94
2019-02-22T02:18:15.487Z,90.15
2019-02-22T02:20:46.728Z,90.38
2019-02-22T02:23:17.787Z,90.22
2019-02-22T02:25:48.869Z,90.07
2019-02-22T02:28:19.882Z,89.81
2019-02-22T02:30:50.838Z,89.55
2019-02-22T02:33:21.810Z,89.49
2019-02-22T02:35:52.859Z,89.51
2019-02-22T02:38:23.831Z,89.37
2019-02-22T02:41:06.858Z,89.20
2019-02-22T02:43:27.433Z,89.13
2019-02-22T02:45:58.302Z,89.55
2019-02-22T02:48:29.309Z,90.37
2019-02-22T02:51:00.262Z,90.99
2019-02-22T02:53:31.280Z,91.37
2019-02-22T02:56:02.258Z,91.09
2019-02-22T02:58:33.284Z,90.87
2019-02-22T03:01:04.255Z,90.73
2019-02-22T03:03:35.208Z,91.55
2019-02-22T03:06:16.775Z,95.09
2019-02-22T03:08:47.800Z,97.89
2019-02-22T03:11:21.108Z,100.00
2019-02-22T03:13:51.296Z,100.00
2019-02-22T03:16:22.208Z,100.00
2019-02-22T03:18:53.266Z,100.00
2019-02-22T03:21:24.221Z,100.00
2019-02-22T03:23:55.090Z,100.00
2019-02-22T03:26:26.032Z,100.00
2019-02-22T03:28:56.932Z,100.00
2019-02-22T03:31:28.001Z,100.00
2019-02-22T03:33:58.914Z,100.00
2019-02-22T03:36:29.904Z,100.00
2019-02-22T03:39:00.869Z,100.00
2019-02-22T03:41:33.458Z,100.00
2019-02-22T03:44:04.680Z,100.00
2019-02-22T03:46:35.649Z,100.00
2019-02-22T03:49:06.571Z,100.00
2019-02-22T03:51:37.646Z,100.00
2019-02-22T03:54:08.584Z,99.73
2019-02-22T03:56:40.036Z,99.24
2019-02-22T03:59:11.061Z,98.80
2019-02-22T04:01:42.089Z,98.30
2019-02-22T04:04:13.393Z,97.80
2019-02-22T04:06:44.463Z,97.42
2019-02-22T04:09:15.357Z,97.27
2019-02-22T04:11:46.597Z,96.88
2019-02-22T04:14:17.635Z,96.71
2019-02-22T04:16:48.588Z,96.46
2019-02-22T04:19:19.624Z,96.08
2019-02-22T04:21:50.716Z,95.86
2019-02-22T04:24:21.725Z,95.52
2019-02-22T04:26:52.680Z,94.81
2019-02-22T04:29:23.662Z,94.91
2019-02-22T04:31:54.644Z,95.27
2019-02-22T04:34:25.514Z,95.21
2019-02-22T04:36:56.392Z,95.20
2019-02-22T04:39:27.292Z,95.38
2019-02-22T04:41:58.521Z,95.28
2019-02-22T04:44:29.456Z,95.11
2019-02-22T04:47:00.442Z,95.17
2019-02-22T04:49:31.327Z,95.00
2019-02-22T04:52:02.224Z,94.73
2019-02-22T04:54:33.145Z,94.70
2019-02-22T04:57:04.204Z,94.65
2019-02-22T04:59:35.230Z,94.80
2019-02-22T05:02:06.431Z,94.88
2019-02-22T05:04:37.453Z,94.70
2019-02-22T05:07:08.493Z,94.73
2019-02-22T05:09:39.511Z,95.07
2019-02-22T05:12:11.342Z,95.08
2019-02-22T05:14:42.469Z,94.89
2019-02-22T05:17:13.402Z,94.95
2019-02-22T05:19:44.287Z,95.01
2019-02-22T05:22:18.263Z,95.07
2019-02-22T05:24:48.624Z,95.01
2019-02-22T05:27:21.277Z,95.10
2019-02-22T05:29:52.265Z,95.31
2019-02-22T05:32:23.333Z,95.39
2019-02-22T05:34:54.304Z,95.57
2019-02-22T05:37:25.245Z,95.56
2019-02-22T05:39:56.375Z,95.49
2019-02-22T05:42:28.691Z,95.67
2019-02-22T05:44:59.724Z,95.67
2019-02-22T05:47:30.919Z,95.74
2019-02-22T05:50:01.926Z,95.88
2019-02-22T05:52:33.255Z,95.41
2019-02-22T05:57:40.227Z,95.47
2019-02-22T06:00:11.372Z,95.44
2019-02-22T06:02:42.350Z,95.56
2019-02-22T06:05:13.327Z,95.60
2019-02-22T06:07:44.294Z,96.00
2019-02-22T06:10:15.363Z,95.90
2019-02-22T06:12:46.471Z,95.85
2019-02-22T06:15:17.497Z,96.03
2019-02-22T06:17:48.501Z,96.06
2019-02-22T06:20:19.540Z,96.10
2019-02-22T06:22:50.474Z,96.13
2019-02-22T06:25:21.462Z,96.07
2019-02-22T06:27:52.360Z,96.06
2019-02-22T06:30:23.438Z,96.52
2019-02-22T06:32:54.411Z,96.74
2019-02-22T06:35:25.291Z,96.86
2019-02-22T06:37:56.272Z,96.93
2019-02-22T06:40:27.210Z,96.85
2019-02-22T06:42:58.249Z,97.08
2019-02-22T06:45:29.196Z,96.66
2019-02-22T06:48:00.169Z,96.39
2019-02-22T06:50:34.038Z,96.32
2019-02-22T06:53:04.099Z,96.44
2019-02-22T06:55:35.051Z,96.63
2019-02-22T06:58:06.001Z,96.50
2019-02-22T07:00:36.943Z,96.58
2019-02-22T07:03:07.913Z,97.07
2019-02-22T07:05:38.949Z,96.77
2019-02-22T07:08:09.995Z,96.50
2019-02-22T07:10:57.441Z,96.36
2019-02-22T07:13:28.449Z,96.14
2019-02-22T07:15:59.467Z,95.89
2019-02-22T07:18:30.492Z,95.53
2019-02-22T07:21:01.444Z,95.38
2019-02-22T07:23:32.338Z,95.13
2019-02-22T07:26:03.297Z,94.95
2019-02-22T07:28:34.267Z,94.77
2019-02-22T07:31:05.311Z,94.67
2019-02-22T07:33:36.244Z,94.60
2019-02-22T07:36:07.327Z,94.81
2019-02-22T07:38:38.297Z,94.83
2019-02-22T07:41:09.770Z,94.75
2019-02-22T07:43:40.849Z,94.33
2019-02-22T07:46:11.823Z,94.11
2019-02-22T07:48:42.778Z,93.94
2019-02-22T07:51:13.683Z,93.84
2019-02-22T07:53:44.581Z,93.55
2019-02-22T07:56:15.456Z,93.11
2019-02-22T07:58:46.506Z,93.10
2019-02-22T08:01:17.521Z,93.31
2019-02-22T08:03:48.473Z,93.36
2019-02-22T08:06:19.563Z,92.91
2019-02-22T08:08:50.581Z,93.02
2019-02-22T08:11:21.582Z,92.44
2019-02-22T08:13:52.548Z,91.63
2019-02-22T08:16:23.487Z,90.95
2019-02-22T08:19:01.469Z,90.42
2019-02-22T08:21:27.338Z,90.28
2019-02-22T08:23:58.555Z,90.11
2019-02-22T08:26:29.582Z,89.27
2019-02-22T08:29:00.675Z,88.69
2019-02-22T08:31:31.564Z,88.11
2019-02-22T08:34:02.546Z,87.17
2019-02-22T08:36:33.539Z,86.04
2019-02-22T08:39:04.880Z,85.63
2019-02-22T08:41:35.928Z,84.21
2019-02-22T08:44:06.896Z,82.93
2019-02-22T08:46:37.861Z,82.16
2019-02-22T08:49:08.743Z,80.71
2019-02-22T08:51:39.888Z,80.48
2019-02-22T08:54:10.784Z,79.52
2019-02-22T08:56:41.798Z,79.43
2019-02-22T08:59:12.787Z,78.83
2019-02-22T09:01:43.670Z,79.17
2019-02-22T09:04:14.626Z,80.21
2019-02-22T09:06:45.592Z,79.53
2019-02-22T09:09:16.591Z,79.36
2019-02-22T09:11:47.722Z,79.80
2019-02-22T09:14:18.786Z,79.70
2019-02-22T09:16:49.834Z,79.56
2019-02-22T09:19:20.775Z,79.15
2019-02-22T09:21:51.819Z,78.38
2019-02-22T09:24:22.804Z,77.37
2019-02-22T09:26:54.205Z,76.37
2019-02-22T09:29:25.371Z,74.83
2019-02-22T09:31:56.316Z,72.69
2019-02-22T09:34:27.292Z,70.67
2019-02-22T09:36:59.007Z,70.18
2019-02-22T09:39:29.994Z,68.86
2019-02-22T09:42:01.037Z,67.77
2019-02-22T09:44:31.977Z,68.01
2019-02-22T09:47:02.934Z,66.95
2019-02-22T09:49:33.924Z,68.47
2019-02-22T09:52:04.956Z,69.25
2019-02-22T09:54:35.935Z,70.47
2019-02-22T09:57:07.488Z,71.04
2019-02-22T09:59:38.504Z,70.70
2019-02-22T10:02:09.479Z,70.18
2019-02-22T10:04:40.488Z,70.54
2019-02-22T10:07:11.546Z,71.05
2019-02-22T10:09:42.401Z,71.15
2019-02-22T10:12:13.379Z,71.43
2019-02-22T10:14:44.356Z,66.24
2019-02-22T10:17:15.445Z,61.44
2019-02-22T10:19:46.374Z,56.43
2019-02-22T10:22:17.382Z,56.03
2019-02-22T10:24:48.331Z,58.81
2019-02-22T10:27:19.343Z,61.42
2019-02-22T10:29:50.409Z,63.26
2019-02-22T10:32:21.325Z,65.03
2019-02-22T10:34:52.308Z,66.06
2019-02-22T10:37:23.351Z,67.20
2019-02-22T10:39:54.396Z,67.74
2019-02-22T10:42:25.387Z,67.74
2019-02-22T10:44:56.426Z,68.71
2019-02-22T10:47:27.455Z,69.07
2019-02-22T10:49:58.544Z,69.83
2019-02-22T10:52:29.552Z,71.36
2019-02-22T10:55:00.697Z,71.11
2019-02-22T10:57:31.795Z,70.96
2019-02-22T11:00:02.911Z,70.68
2019-02-22T11:02:34.010Z,71.14
2019-02-22T11:05:05.126Z,70.38
2019-02-22T11:07:37.262Z,70.44
2019-02-22T11:10:13.111Z,70.52
2019-02-22T11:12:44.238Z,70.17
2019-02-22T11:15:15.629Z,70.36
2019-02-22T11:17:46.634Z,71.27
2019-02-22T11:20:17.559Z,71.12
2019-02-22T11:22:48.604Z,70.89
2019-02-22T11:25:19.543Z,70.26
2019-02-22T11:27:50.631Z,70.58
2019-02-22T11:30:21.676Z,70.10
2019-02-22T11:32:52.640Z,70.06
2019-02-22T11:35:23.695Z,69.36
2019-02-22T11:37:54.895Z,69.09
2019-02-22T11:40:25.821Z,69.10
2019-02-22T11:42:56.884Z,68.80
2019-02-22T11:45:28.073Z,69.87
2019-02-22T11:48:08.651Z,69.55
2019-02-22T11:50:31.729Z,69.54
2019-02-22T11:53:02.617Z,69.13
2019-02-22T11:55:33.823Z,69.04
2019-02-22T11:58:04.818Z,69.46
2019-02-22T12:00:35.763Z,69.11
2019-02-22T12:03:21.140Z,69.65
2019-02-22T12:05:39.458Z,70.78
2019-02-22T12:08:10.422Z,71.20
2019-02-22T12:10:41.514Z,71.12
2019-02-22T12:13:12.460Z,70.65
2019-02-22T12:15:43.562Z,70.33
2019-02-22T12:18:14.463Z,70.03
2019-02-22T12:20:45.616Z,69.92
2019-02-22T12:23:16.635Z,70.17
2019-02-22T12:25:47.660Z,70.36
2019-02-22T12:28:18.760Z,70.05
2019-02-22T12:30:49.865Z,69.57
2019-02-22T12:33:21.126Z,69.15
2019-02-22T12:35:52.118Z,69.11
2019-02-22T12:38:23.437Z,68.02
2019-02-22T12:40:54.458Z,67.69
2019-02-22T12:43:25.434Z,67.96
2019-02-22T12:45:56.452Z,68.90
2019-02-22T12:48:27.606Z,69.12
2019-02-22T12:50:58.766Z,70.13
2019-02-22T12:53:29.801Z,70.50
2019-02-22T12:56:00.644Z,70.41
2019-02-22T12:58:31.669Z,70.27
2019-02-22T13:01:02.712Z,70.40
2019-02-22T13:03:33.689Z,69.65
2019-02-22T13:06:04.704Z,69.55
2019-02-22T13:08:35.872Z,69.55
2019-02-22T13:11:07.007Z,69.22
2019-02-22T13:13:38.029Z,69.55
2019-02-22T13:16:09.012Z,69.89
2019-02-22T13:18:39.902Z,70.15
2019-02-22T13:21:10.846Z,70.69
2019-02-22T13:23:41.750Z,70.61
2019-02-22T13:26:12.661Z,71.05
2019-02-22T13:28:43.709Z,71.37
2019-02-22T13:31:14.694Z,71.84
2019-02-22T13:33:45.683Z,71.97
2019-02-22T13:36:16.712Z,72.49
2019-02-22T13:38:47.629Z,73.44
2019-02-22T13:41:18.601Z,73.40
2019-02-22T13:43:49.637Z,72.78
2019-02-22T13:46:20.810Z,72.07
2019-02-22T13:48:51.829Z,71.98
2019-02-22T13:51:22.907Z,71.54
2019-02-22T13:53:53.842Z,71.60
2019-02-22T13:56:29.547Z,71.64
2019-02-22T13:58:57.486Z,71.61
2019-02-22T14:01:28.367Z,71.62
2019-02-22T14:03:59.430Z,71.13
2019-02-22T14:06:30.391Z,70.65
2019-02-22T14:09:01.647Z,70.18
2019-02-22T14:11:32.490Z,69.90
2019-02-22T14:14:03.384Z,69.44
2019-02-22T14:16:35.936Z,68.85
2019-02-22T14:19:06.959Z,68.15
2019-02-22T14:21:37.910Z,67.50
2019-02-22T14:24:09.814Z,66.93
2019-02-22T14:26:40.755Z,66.29
2019-02-22T14:29:11.706Z,65.72
2019-02-22T14:31:42.741Z,65.62
2019-02-22T14:34:13.618Z,65.19
2019-02-22T14:36:45.135Z,65.31
2019-02-22T14:39:16.172Z,65.10
2019-02-22T14:41:47.106Z,64.67
2019-02-22T14:44:18.155Z,64.53
2019-02-22T14:46:49.289Z,64.77
2019-02-22T14:49:20.150Z,64.86
2019-02-22T14:51:51.080Z,64.50
2019-02-22T14:54:22.201Z,64.33
2019-02-22T14:56:53.181Z,64.33
2019-02-22T14:59:24.182Z,64.36
2019-02-22T15:01:55.125Z,64.21
2019-02-22T15:04:26.090Z,64.41
2019-02-22T15:06:57.128Z,64.42
2019-02-22T15:09:28.151Z,63.93
2019-02-22T15:11:59.171Z,63.35
2019-02-22T15:14:30.138Z,62.60
2019-02-22T15:17:02.973Z,61.57
2019-02-22T15:19:34.001Z,60.51
2019-02-22T15:22:05.004Z,58.80
2019-02-22T15:24:36.001Z,58.63
2019-02-22T15:27:06.974Z,55.39
2019-02-22T15:29:37.881Z,52.34
2019-02-22T15:32:08.941Z,52.37
2019-02-22T15:34:39.774Z,53.20
2019-02-22T15:37:10.742Z,55.49
2019-02-22T15:39:41.751Z,58.07
2019-02-22T15:42:12.948Z,59.64
2019-02-22T15:44:44.253Z,60.36
2019-02-22T15:47:15.193Z,61.39
2019-02-22T15:49:48.499Z,62.15
2019-02-22T15:52:18.717Z,62.62
2019-02-22T15:54:49.681Z,63.21
2019-02-22T15:57:20.803Z,63.43
2019-02-22T15:59:51.782Z,63.84
2019-02-22T16:02:22.685Z,64.36
2019-02-22T16:04:55.382Z,64.84
2019-02-22T16:07:26.365Z,65.49
2019-02-22T16:09:57.306Z,65.96
2019-02-22T16:12:28.333Z,65.66
2019-02-22T16:14:59.237Z,65.83
2019-02-22T16:17:30.333Z,66.36
2019-02-22T16:20:01.499Z,67.01
2019-02-22T16:22:32.461Z,67.72
2019-02-22T16:25:03.451Z,68.01
2019-02-22T16:27:34.314Z,68.53
2019-02-22T16:30:11.603Z,69.69
2019-02-22T16:32:42.535Z,70.75
2019-02-22T16:35:14.040Z,71.56
2019-02-22T16:37:45.032Z,71.87
2019-02-22T16:40:16.126Z,72.70
2019-02-22T16:42:47.203Z,73.21
2019-02-22T16:45:18.297Z,74.05
2019-02-22T16:47:49.474Z,74.69
2019-02-22T16:50:20.435Z,74.76
2019-02-22T16:52:51.378Z,74.46
2019-02-22T16:55:22.491Z,74.37
2019-02-22T16:57:53.560Z,74.24
2019-02-22T17:00:24.423Z,74.92
2019-02-22T17:02:55.473Z,74.93
2019-02-22T17:05:26.314Z,75.76
2019-02-22T17:07:57.294Z,76.47
2019-02-22T17:10:28.316Z,77.12
2019-02-22T17:12:59.257Z,77.03
2019-02-22T17:15:30.289Z,77.25
2019-02-22T17:18:01.407Z,77.32
2019-02-22T17:20:32.384Z,77.35
2019-02-22T17:23:03.370Z,77.62
2019-02-22T17:25:34.390Z,77.93
2019-02-22T17:28:05.437Z,78.16
2019-02-22T17:30:36.461Z,78.45
2019-02-22T17:33:07.536Z,78.65
2019-02-22T17:35:38.400Z,78.85
2019-02-22T17:38:09.298Z,79.53
2019-02-22T17:40:40.192Z,79.52
2019-02-22T17:43:11.151Z,79.91
2019-02-22T17:45:42.173Z,79.77
2019-02-22T17:48:13.038Z,80.14
2019-02-22T17:50:44.002Z,79.95
2019-02-22T17:53:15.017Z,79.75
2019-02-22T17:55:45.934Z,80.27
2019-02-22T17:58:24.090Z,80.82
2019-02-22T18:00:49.857Z,80.71
2019-02-22T18:03:20.797Z,81.82
2019-02-22T18:05:51.799Z,82.10
2019-02-22T18:08:22.757Z,81.49
2019-02-22T18:10:59.211Z,82.22
2019-02-22T18:13:30.258Z,82.02
2019-02-22T18:16:01.287Z,81.84
2019-02-22T18:18:32.218Z,82.33
2019-02-22T18:21:03.356Z,82.35
2019-02-22T18:23:34.399Z,82.51
2019-02-22T18:26:05.450Z,82.35
2019-02-22T18:28:36.499Z,82.13
2019-02-22T18:31:07.372Z,82.39
2019-02-22T18:33:38.243Z,82.58
2019-02-22T18:36:09.160Z,82.65
2019-02-22T18:38:40.186Z,83.06
2019-02-22T18:41:11.090Z,82.91
2019-02-22T18:43:42.127Z,83.23
2019-02-22T18:46:13.141Z,83.89
2019-02-22T18:48:44.095Z,84.01
2019-02-22T18:51:14.946Z,84.29
2019-02-22T18:53:46.016Z,84.62
2019-02-22T18:56:17.282Z,85.20
2019-02-22T18:58:48.326Z,84.92
2019-02-22T19:01:19.244Z,84.65
2019-02-22T19:03:50.364Z,85.17
2019-02-22T19:06:21.251Z,84.86
2019-02-22T19:08:52.318Z,85.00
2019-02-22T19:11:23.216Z,85.34
2019-02-22T19:13:54.179Z,85.35
2019-02-22T19:16:25.067Z,86.11
2019-02-22T19:18:56.064Z,85.85
2019-02-22T19:21:26.969Z,85.58
2019-02-22T19:23:57.930Z,85.36
2019-02-22T19:26:28.999Z,85.95
2019-02-22T19:28:59.881Z,86.00
2019-02-22T19:31:30.814Z,86.15
2019-02-22T19:34:01.778Z,86.34
2019-02-22T19:36:32.914Z,87.27
2019-02-22T19:39:04.461Z,87.33
2019-02-22T19:41:35.522Z,87.26
2019-02-22T19:44:06.440Z,87.22
2019-02-22T19:46:37.475Z,87.05
2019-02-22T19:49:08.344Z,87.25
2019-02-22T19:51:39.402Z,87.25
2019-02-22T19:54:10.415Z,87.35
2019-02-22T19:56:41.398Z,87.27
2019-02-22T19:59:12.376Z,86.95
2019-02-22T20:01:43.372Z,86.65
2019-02-22T20:04:14.411Z,86.98
2019-02-22T20:06:45.449Z,87.54
2019-02-22T20:09:16.445Z,88.04
2019-02-22T20:11:48.701Z,87.53
2019-02-22T20:14:19.779Z,87.60
2019-02-22T20:16:50.789Z,88.56
2019-02-22T20:19:21.835Z,88.29
2019-02-22T20:21:52.697Z,88.41
2019-02-22T20:24:23.681Z,88.79
2019-02-22T20:26:54.706Z,89.54
2019-02-22T20:29:25.609Z,89.77
2019-02-22T20:31:56.553Z,90.18
2019-02-22T20:34:27.668Z,90.20
2019-02-22T20:36:58.532Z,91.10
2019-02-22T20:39:29.577Z,91.28
2019-02-22T20:42:00.539Z,91.12
2019-02-22T20:44:31.599Z,91.58
2019-02-22T20:47:02.600Z,91.56
2019-02-22T20:49:33.871Z,91.30
2019-02-22T20:52:04.820Z,90.77
2019-02-22T20:54:35.689Z,91.22
2019-02-22T20:57:06.653Z,91.60
2019-02-22T20:59:37.568Z,91.47
2019-02-22T21:02:08.586Z,91.59
2019-02-22T21:04:39.606Z,92.96
2019-02-22T21:07:10.744Z,92.32
2019-02-22T21:09:41.810Z,92.42
2019-02-22T21:12:12.972Z,92.03
2019-02-22T21:14:43.843Z,91.78
2019-02-22T21:17:14.827Z,91.52
2019-02-22T21:19:45.677Z,91.23
2019-02-22T21:22:16.915Z,91.57
2019-02-22T21:24:48.120Z,92.00
2019-02-22T21:27:18.980Z,91.68
2019-02-22T21:29:50.005Z,91.89
2019-02-22T21:32:20.896Z,91.63
2019-02-22T21:34:51.861Z,91.87
2019-02-22T21:37:23.309Z,92.22
2019-02-22T21:39:54.297Z,92.97
2019-02-22T21:42:25.153Z,94.21
2019-02-22T21:44:56.136Z,94.19
2019-02-22T21:47:27.144Z,94.12
2019-02-22T21:49:58.105Z,95.14
2019-02-22T21:52:29.237Z,95.35
2019-02-22T21:55:00.321Z,94.96
2019-02-22T21:57:31.249Z,93.96
2019-02-22T22:00:02.211Z,93.29
2019-02-22T22:02:33.296Z,93.10
2019-02-22T22:05:04.433Z,92.42
2019-02-22T22:07:35.272Z,92.33
2019-02-22T22:10:08.163Z,92.16
2019-02-22T22:12:39.212Z,92.80
2019-02-22T22:15:16.226Z,93.10
2019-02-22T22:17:47.179Z,93.81
2019-02-22T22:20:18.146Z,94.05
2019-02-22T22:22:49.229Z,93.66
2019-02-22T22:25:20.304Z,93.76
2019-02-22T22:27:51.424Z,93.89
2019-02-22T22:30:22.446Z,94.36
2019-02-22T22:32:53.520Z,94.15
2019-02-22T22:35:24.562Z,95.59
2019-02-22T22:37:55.512Z,95.71
2019-02-22T22:40:26.590Z,95.79
2019-02-22T22:42:57.571Z,97.38
2019-02-22T22:45:28.605Z,96.48
2019-02-22T22:47:59.465Z,95.81
2019-02-22T22:50:30.375Z,94.92
2019-02-22T22:53:02.056Z,94.60
2019-02-22T22:55:33.020Z,94.80
2019-02-22T22:58:03.989Z,94.92
2019-02-22T23:00:45.863Z,94.64
2019-02-22T23:03:17.190Z,94.63
2019-02-22T23:05:48.267Z,94.76
2019-02-22T23:08:20.976Z,94.94
2019-02-22T23:10:52.018Z,95.28
2019-02-22T23:13:23.107Z,95.25
2019-02-22T23:15:54.139Z,95.56
2019-02-22T23:18:25.191Z,95.02
2019-02-22T23:20:56.106Z,95.08
2019-02-22T23:23:27.146Z,94.99
2019-02-22T23:25:58.092Z,95.64
2019-02-22T23:28:28.987Z,95.74
2019-02-22T23:30:59.950Z,95.87
2019-02-22T23:33:30.944Z,96.48
2019-02-22T23:36:01.896Z,96.54
2019-02-22T23:38:32.830Z,96.17
2019-02-22T23:41:03.714Z,95.70
2019-02-22T23:43:34.839Z,95.18
2019-02-22T23:46:05.782Z,94.73
2019-02-22T23:48:36.713Z,94.38
2019-02-22T23:51:07.756Z,94.07
2019-02-22T23:53:38.743Z,93.64
2019-02-22T23:56:09.807Z,93.49
2019-02-22T23:58:40.781Z,93.59
